sensor_id;sensor_type;location;lat;lon;timestamp;P1;durP1;ratioP1;P2;durP2;ratioP2
75516;SDS011;64097;52.548;13.406;2024-03-08T06:05:24;32.78;;;22.92;;
75516;SDS011;64097;52.548;13.406;2024-03-08T06:07:50;30.85;;;22.58;;
75516;SDS011;64097;52.548;13.406;2024-03-08T06:10:18;31.65;;;22.58;;
75516;SDS011;64097;52.548;13.406;2024-03-08T06:12:44;30.60;;;21.90;;
75516;SDS011;64097;52.548;13.406;2024-03-08T06:15:10;30.35;;;20.95;;
75516;SDS011;64097;52.548;13.406;2024-03-08T06:17:39;30.48;;;20.85;;
75516;SDS011;64097;52.548;13.406;2024-03-08T06:20:06;29.48;;;21.08;;
75516;SDS011;64097;52.548;13.406;2024-03-08T06:22:38;29.45;;;20.40;;
75516;SDS011;64097;52.548;13.406;2024-03-08T06:25:10;32.08;;;23.40;;
75516;SDS011;64097;52.548;13.406;2024-03-08T06:27:42;35.10;;;22.92;;
75516;SDS011;64097;52.548;13.406;2024-03-08T06:30:09;31.17;;;22.02;;
75516;SDS011;64097;52.548;13.406;2024-03-08T06:32:35;34.25;;;23.42;;
75516;SDS011;64097;52.548;13.406;2024-03-08T06:35:02;34.13;;;23.52;;
75516;SDS011;64097;52.548;13.406;2024-03-08T06:37:34;32.40;;;22.55;;
75516;SDS011;64097;52.548;13.406;2024-03-08T06:40:00;32.63;;;23.02;;
75516;SDS011;64097;52.548;13.406;2024-03-08T06:42:29;30.58;;;22.25;;
75516;SDS011;64097;52.548;13.406;2024-03-08T06:45:00;29.90;;;22.25;;
75516;SDS011;64097;52.548;13.406;2024-03-08T06:47:30;31.75;;;22.75;;
75516;SDS011;64097;52.548;13.406;2024-03-08T06:49:59;34.38;;;24.10;;
75516;SDS011;64097;52.548;13.406;2024-03-08T06:52:25;36.75;;;25.55;;
75516;SDS011;64097;52.548;13.406;2024-03-08T06:54:51;33.10;;;23.90;;
75516;SDS011;64097;52.548;13.406;2024-03-08T06:57:17;32.40;;;23.70;;
75516;SDS011;64097;52.548;13.406;2024-03-08T06:59:45;29.63;;;21.75;;
75516;SDS011;64097;52.548;13.406;2024-03-08T07:02:11;31.15;;;22.88;;
75516;SDS011;64097;52.548;13.406;2024-03-08T07:04:36;29.48;;;21.15;;
75516;SDS011;64097;52.548;13.406;2024-03-08T07:07:06;35.00;;;23.83;;
75516;SDS011;64097;52.548;13.406;2024-03-08T07:09:37;30.23;;;22.67;;
75516;SDS011;64097;52.548;13.406;2024-03-08T07:12:03;31.73;;;23.15;;
75516;SDS011;64097;52.548;13.406;2024-03-08T07:14:29;29.65;;;21.63;;
75516;SDS011;64097;52.548;13.406;2024-03-08T07:16:58;31.85;;;22.00;;
75516;SDS011;64097;52.548;13.406;2024-03-08T07:19:24;29.52;;;20.85;;
75516;SDS011;64097;52.548;13.406;2024-03-08T07:21:49;30.88;;;21.88;;
75516;SDS011;64097;52.548;13.406;2024-03-08T07:24:15;31.15;;;22.65;;
75516;SDS011;64097;52.548;13.406;2024-03-08T07:27:05;27.15;;;20.42;;
75516;SDS011;64097;52.548;13.406;2024-03-08T07:29:34;30.38;;;21.05;;
75516;SDS011;64097;52.548;13.406;2024-03-08T07:32:00;29.48;;;21.77;;
75516;SDS011;64097;52.548;13.406;2024-03-08T07:34:25;31.50;;;22.30;;
75516;SDS011;64097;52.548;13.406;2024-03-08T07:36:51;34.88;;;24.65;;
75516;SDS011;64097;52.548;13.406;2024-03-08T07:39:17;32.50;;;24.15;;
75516;SDS011;64097;52.548;13.406;2024-03-08T07:41:45;32.65;;;23.67;;
75516;SDS011;64097;52.548;13.406;2024-03-08T07:44:10;32.33;;;23.35;;
75516;SDS011;64097;52.548;13.406;2024-03-08T07:46:39;30.77;;;21.65;;
75516;SDS011;64097;52.548;13.406;2024-03-08T07:49:06;30.20;;;22.15;;
75516;SDS011;64097;52.548;13.406;2024-03-08T07:51:35;32.10;;;22.63;;
75516;SDS011;64097;52.548;13.406;2024-03-08T07:54:02;29.38;;;20.40;;
75516;SDS011;64097;52.548;13.406;2024-03-08T07:56:29;30.73;;;22.58;;
75516;SDS011;64097;52.548;13.406;2024-03-08T07:58:55;29.13;;;21.63;;
75516;SDS011;64097;52.548;13.406;2024-03-08T08:01:21;32.78;;;22.20;;
75516;SDS011;64097;52.548;13.406;2024-03-08T08:03:47;29.10;;;21.90;;
75516;SDS011;64097;52.548;13.406;2024-03-08T08:06:14;26.98;;;20.60;;
75516;SDS011;64097;52.548;13.406;2024-03-08T08:08:41;26.80;;;19.98;;
75516;SDS011;64097;52.548;13.406;2024-03-08T08:11:07;29.05;;;20.85;;
75516;SDS011;64097;52.548;13.406;2024-03-08T08:13:34;29.15;;;21.05;;
75516;SDS011;64097;52.548;13.406;2024-03-08T08:16:01;31.00;;;22.35;;
75516;SDS011;64097;52.548;13.406;2024-03-08T08:18:28;30.52;;;22.20;;
75516;SDS011;64097;52.548;13.406;2024-03-08T08:20:55;31.33;;;21.38;;
75516;SDS011;64097;52.548;13.406;2024-03-08T08:23:21;26.08;;;19.02;;
75516;SDS011;64097;52.548;13.406;2024-03-08T08:25:47;26.50;;;19.33;;
75516;SDS011;64097;52.548;13.406;2024-03-08T08:28:18;28.33;;;20.48;;
75516;SDS011;64097;52.548;13.406;2024-03-08T08:30:44;29.27;;;21.23;;
75516;SDS011;64097;52.548;13.406;2024-03-08T08:33:10;27.55;;;20.42;;
75516;SDS011;64097;52.548;13.406;2024-03-08T08:35:36;26.70;;;20.00;;
75516;SDS011;64097;52.548;13.406;2024-03-08T08:38:03;25.75;;;19.45;;
75516;SDS011;64097;52.548;13.406;2024-03-08T08:40:35;25.17;;;18.55;;
75516;SDS011;64097;52.548;13.406;2024-03-08T08:43:03;25.00;;;19.20;;
75516;SDS011;64097;52.548;13.406;2024-03-08T08:45:30;27.88;;;20.52;;
75516;SDS011;64097;52.548;13.406;2024-03-08T08:47:56;27.77;;;20.55;;
75516;SDS011;64097;52.548;13.406;2024-03-08T08:50:24;27.52;;;20.67;;
75516;SDS011;64097;52.548;13.406;2024-03-08T08:52:51;28.42;;;20.95;;
75516;SDS011;64097;52.548;13.406;2024-03-08T08:55:18;27.90;;;20.77;;
75516;SDS011;64097;52.548;13.406;2024-03-08T08:57:46;26.67;;;20.35;;
75516;SDS011;64097;52.548;13.406;2024-03-08T09:00:17;25.42;;;19.95;;
75516;SDS011;64097;52.548;13.406;2024-03-08T09:02:46;26.83;;;21.02;;
75516;SDS011;64097;52.548;13.406;2024-03-08T09:05:13;27.13;;;21.38;;
75516;SDS011;64097;52.548;13.406;2024-03-08T09:07:44;26.63;;;19.73;;
75516;SDS011;64097;52.548;13.406;2024-03-08T09:10:11;28.92;;;21.23;;
75516;SDS011;64097;52.548;13.406;2024-03-08T09:12:40;29.13;;;20.77;;
75516;SDS011;64097;52.548;13.406;2024-03-08T09:15:06;28.02;;;21.48;;
75516;SDS011;64097;52.548;13.406;2024-03-08T09:17:35;27.40;;;20.50;;
75516;SDS011;64097;52.548;13.406;2024-03-08T09:20:05;30.92;;;22.13;;
75516;SDS011;64097;52.548;13.406;2024-03-08T09:22:32;30.77;;;22.15;;
75516;SDS011;64097;52.548;13.406;2024-03-08T09:24:57;29.65;;;22.23;;
75516;SDS011;64097;52.548;13.406;2024-03-08T09:27:23;27.75;;;20.92;;
75516;SDS011;64097;52.548;13.406;2024-03-08T09:29:49;30.25;;;22.48;;
75516;SDS011;64097;52.548;13.406;2024-03-08T09:32:14;26.85;;;20.98;;
75516;SDS011;64097;52.548;13.406;2024-03-08T09:34:40;31.25;;;21.77;;
75516;SDS011;64097;52.548;13.406;2024-03-08T09:37:06;28.90;;;21.73;;
75516;SDS011;64097;52.548;13.406;2024-03-08T09:39:33;28.67;;;21.63;;
75516;SDS011;64097;52.548;13.406;2024-03-08T09:41:59;29.15;;;21.52;;
75516;SDS011;64097;52.548;13.406;2024-03-08T09:44:26;27.35;;;20.00;;
75516;SDS011;64097;52.548;13.406;2024-03-08T09:46:54;28.58;;;21.08;;
75516;SDS011;64097;52.548;13.406;2024-03-08T09:49:20;27.88;;;21.20;;
75516;SDS011;64097;52.548;13.406;2024-03-08T09:51:46;26.88;;;20.50;;
75516;SDS011;64097;52.548;13.406;2024-03-08T09:54:12;27.10;;;19.90;;
75516;SDS011;64097;52.548;13.406;2024-03-08T09:56:41;31.67;;;22.98;;
75516;SDS011;64097;52.548;13.406;2024-03-08T09:59:09;24.00;;;19.50;;
75516;SDS011;64097;52.548;13.406;2024-03-08T10:01:35;27.73;;;20.33;;
75516;SDS011;64097;52.548;13.406;2024-03-08T10:04:02;27.85;;;20.70;;
75516;SDS011;64097;52.548;13.406;2024-03-08T10:06:27;25.25;;;19.42;;
75516;SDS011;64097;52.548;13.406;2024-03-08T10:08:53;25.92;;;20.13;;
75516;SDS011;64097;52.548;13.406;2024-03-08T10:11:19;25.77;;;18.90;;
75516;SDS011;64097;52.548;13.406;2024-03-08T10:13:47;26.45;;;19.95;;
75516;SDS011;64097;52.548;13.406;2024-03-08T10:16:13;26.42;;;19.42;;
75516;SDS011;64097;52.548;13.406;2024-03-08T10:18:39;23.42;;;18.02;;
75516;SDS011;64097;52.548;13.406;2024-03-08T10:21:06;25.88;;;18.67;;
75516;SDS011;64097;52.548;13.406;2024-03-08T10:23:35;25.05;;;19.45;;
75516;SDS011;64097;52.548;13.406;2024-03-08T10:26:14;23.17;;;17.55;;
75516;SDS011;64097;52.548;13.406;2024-03-08T10:28:42;26.27;;;19.80;;
75516;SDS011;64097;52.548;13.406;2024-03-08T10:31:10;27.95;;;19.95;;
75516;SDS011;64097;52.548;13.406;2024-03-08T10:33:36;25.25;;;19.00;;
75516;SDS011;64097;52.548;13.406;2024-03-08T10:36:09;23.45;;;18.17;;
75516;SDS011;64097;52.548;13.406;2024-03-08T10:38:38;23.58;;;18.17;;
75516;SDS011;64097;52.548;13.406;2024-03-08T10:41:08;21.92;;;17.20;;
75516;SDS011;64097;52.548;13.406;2024-03-08T10:46:41;21.13;;;16.20;;
75516;SDS011;64097;52.548;13.406;2024-03-08T10:49:20;22.15;;;16.98;;
75516;SDS011;64097;52.548;13.406;2024-03-08T10:51:55;25.77;;;19.55;;
75516;SDS011;64097;52.548;13.406;2024-03-08T10:54:23;23.98;;;18.02;;
75516;SDS011;64097;52.548;13.406;2024-03-08T10:56:51;23.70;;;17.98;;
75516;SDS011;64097;52.548;13.406;2024-03-08T10:59:18;23.00;;;17.48;;
75516;SDS011;64097;52.548;13.406;2024-03-08T11:01:45;21.80;;;17.58;;
75516;SDS011;64097;52.548;13.406;2024-03-08T11:04:11;20.20;;;16.15;;
75516;SDS011;64097;52.548;13.406;2024-03-08T11:14:50;20.35;;;15.85;;
75516;SDS011;64097;52.548;13.406;2024-03-08T11:17:21;22.27;;;16.35;;
75516;SDS011;64097;52.548;13.406;2024-03-08T11:19:54;20.55;;;16.83;;
75516;SDS011;64097;52.548;13.406;2024-03-08T11:22:22;20.63;;;16.25;;
75516;SDS011;64097;52.548;13.406;2024-03-08T11:24:49;23.17;;;17.80;;
75516;SDS011;64097;52.548;13.406;2024-03-08T11:27:15;21.83;;;16.55;;
75516;SDS011;64097;52.548;13.406;2024-03-08T11:29:40;22.80;;;16.52;;
75516;SDS011;64097;52.548;13.406;2024-03-08T11:32:07;19.63;;;15.30;;
75516;SDS011;64097;52.548;13.406;2024-03-08T11:34:40;19.55;;;15.45;;
75516;SDS011;64097;52.548;13.406;2024-03-08T11:37:17;21.05;;;15.98;;
75516;SDS011;64097;52.548;13.406;2024-03-08T11:42:13;18.40;;;14.50;;
75516;SDS011;64097;52.548;13.406;2024-03-08T11:44:40;22.50;;;16.25;;
75516;SDS011;64097;52.548;13.406;2024-03-08T11:47:09;21.27;;;16.30;;
75516;SDS011;64097;52.548;13.406;2024-03-08T11:49:36;20.58;;;15.38;;
75516;SDS011;64097;52.548;13.406;2024-03-08T11:52:02;24.05;;;17.55;;
75516;SDS011;64097;52.548;13.406;2024-03-08T11:54:29;19.13;;;14.95;;
75516;SDS011;64097;52.548;13.406;2024-03-08T11:56:55;20.05;;;15.43;;
75516;SDS011;64097;52.548;13.406;2024-03-08T11:59:26;17.35;;;13.90;;
75516;SDS011;64097;52.548;13.406;2024-03-08T12:02:02;18.52;;;14.88;;
75516;SDS011;64097;52.548;13.406;2024-03-08T12:04:29;19.90;;;15.38;;
75516;SDS011;64097;52.548;13.406;2024-03-08T12:06:56;20.05;;;15.43;;
75516;SDS011;64097;52.548;13.406;2024-03-08T12:09:34;19.85;;;14.70;;
75516;SDS011;64097;52.548;13.406;2024-03-08T12:12:02;18.90;;;15.20;;
75516;SDS011;64097;52.548;13.406;2024-03-08T12:14:29;19.02;;;14.85;;
75516;SDS011;64097;52.548;13.406;2024-03-08T12:16:57;18.85;;;14.05;;
75516;SDS011;64097;52.548;13.406;2024-03-08T12:19:23;17.25;;;14.10;;
75516;SDS011;64097;52.548;13.406;2024-03-08T12:21:49;19.40;;;14.93;;
75516;SDS011;64097;52.548;13.406;2024-03-08T12:24:15;21.45;;;15.65;;
75516;SDS011;64097;52.548;13.406;2024-03-08T12:26:44;22.30;;;16.77;;
75516;SDS011;64097;52.548;13.406;2024-03-08T12:31:47;20.75;;;15.18;;
75516;SDS011;64097;52.548;13.406;2024-03-08T12:34:20;20.00;;;14.93;;
75516;SDS011;64097;52.548;13.406;2024-03-08T12:36:51;18.90;;;14.80;;
75516;SDS011;64097;52.548;13.406;2024-03-08T12:39:19;17.40;;;13.85;;
75516;SDS011;64097;52.548;13.406;2024-03-08T12:41:55;17.45;;;13.23;;
75516;SDS011;64097;52.548;13.406;2024-03-08T12:44:25;18.05;;;14.65;;
75516;SDS011;64097;52.548;13.406;2024-03-08T12:46:51;19.67;;;14.98;;
75516;SDS011;64097;52.548;13.406;2024-03-08T12:49:18;18.45;;;14.80;;
75516;SDS011;64097;52.548;13.406;2024-03-08T12:51:47;20.67;;;16.58;;
75516;SDS011;64097;52.548;13.406;2024-03-08T12:54:13;17.90;;;13.82;;
75516;SDS011;64097;52.548;13.406;2024-03-08T12:56:38;20.55;;;15.48;;
75516;SDS011;64097;52.548;13.406;2024-03-08T12:59:05;18.40;;;14.38;;
75516;SDS011;64097;52.548;13.406;2024-03-08T13:01:35;18.95;;;14.75;;
75516;SDS011;64097;52.548;13.406;2024-03-08T13:04:02;20.70;;;16.02;;
75516;SDS011;64097;52.548;13.406;2024-03-08T13:06:29;19.85;;;15.77;;
75516;SDS011;64097;52.548;13.406;2024-03-08T13:08:56;18.63;;;14.10;;
75516;SDS011;64097;52.548;13.406;2024-03-08T13:11:23;21.67;;;14.88;;
75516;SDS011;64097;52.548;13.406;2024-03-08T13:13:50;17.77;;;14.07;;
75516;SDS011;64097;52.548;13.406;2024-03-08T13:16:16;20.30;;;15.88;;
75516;SDS011;64097;52.548;13.406;2024-03-08T13:18:44;19.90;;;15.43;;
75516;SDS011;64097;52.548;13.406;2024-03-08T13:21:10;20.58;;;14.77;;
75516;SDS011;64097;52.548;13.406;2024-03-08T13:23:38;16.50;;;13.02;;
75516;SDS011;64097;52.548;13.406;2024-03-08T13:26:06;21.13;;;15.90;;
75516;SDS011;64097;52.548;13.406;2024-03-08T13:28:43;19.98;;;15.45;;
75516;SDS011;64097;52.548;13.406;2024-03-08T13:31:14;17.10;;;13.48;;
75516;SDS011;64097;52.548;13.406;2024-03-08T13:33:40;18.98;;;15.13;;
75516;SDS011;64097;52.548;13.406;2024-03-08T13:36:07;17.30;;;13.68;;
75516;SDS011;64097;52.548;13.406;2024-03-08T13:38:46;19.40;;;14.95;;
75516;SDS011;64097;52.548;13.406;2024-03-08T13:41:13;16.85;;;13.45;;
75516;SDS011;64097;52.548;13.406;2024-03-08T13:43:40;17.60;;;14.45;;
75516;SDS011;64097;52.548;13.406;2024-03-08T13:46:06;16.45;;;13.82;;
75516;SDS011;64097;52.548;13.406;2024-03-08T13:48:33;17.15;;;13.50;;
75516;SDS011;64097;52.548;13.406;2024-03-08T13:50:59;17.02;;;13.25;;
75516;SDS011;64097;52.548;13.406;2024-03-08T13:53:25;16.10;;;13.70;;
75516;SDS011;64097;52.548;13.406;2024-03-08T13:55:51;18.02;;;14.48;;
75516;SDS011;64097;52.548;13.406;2024-03-08T13:58:17;18.15;;;14.52;;
